createdAt,value
2023-05-10T00:00:32.579Z,16.8882
2023-05-10T00:01:34.268Z,16.9230
2023-05-10T00:02:35.854Z,16.9470
2023-05-10T00:03:37.501Z,16.9129
2023-05-10T00:04:39.121Z,16.8886
2023-05-10T00:05:40.789Z,16.8793
2023-05-10T00:06:42.377Z,16.8819
2023-05-10T00:07:44.033Z,16.8818
2023-05-10T00:08:45.655Z,16.9389
2023-05-10T00:09:47.305Z,16.9462
2023-05-10T00:10:48.989Z,16.9316
2023-05-10T00:11:50.558Z,16.9059
2023-05-10T00:12:52.239Z,16.8757
2023-05-10T00:13:53.815Z,16.8495
2023-05-10T00:14:55.488Z,16.8260
2023-05-10T00:15:57.156Z,16.8590
2023-05-10T00:16:58.824Z,16.8624
2023-05-10T00:18:00.500Z,16.8580
2023-05-10T00:19:01.990Z,16.8588
2023-05-10T00:20:03.740Z,16.8120
2023-05-10T00:21:05.385Z,16.7719
2023-05-10T00:22:07.009Z,16.7643
2023-05-10T00:23:08.652Z,16.7902
2023-05-10T00:24:10.349Z,16.8251
2023-05-10T00:25:11.977Z,16.8620
2023-05-10T00:26:13.623Z,16.8824
2023-05-10T00:27:15.239Z,16.8992
2023-05-10T00:28:16.862Z,16.8650
2023-05-10T00:29:18.464Z,16.8308
2023-05-10T00:30:20.097Z,16.8159
2023-05-10T00:31:21.744Z,16.8120
2023-05-10T00:32:23.503Z,16.8360
2023-05-10T00:33:25.091Z,16.8477
2023-05-10T00:34:26.697Z,16.8492
2023-05-10T00:35:28.349Z,16.8032
2023-05-10T00:36:29.978Z,16.7744
2023-05-10T00:37:31.664Z,16.7596
2023-05-10T00:38:33.207Z,16.7776
2023-05-10T00:39:34.881Z,16.7784
2023-05-10T00:40:36.595Z,16.7715
2023-05-10T00:41:38.179Z,16.7939
2023-05-10T00:42:39.781Z,16.8022
2023-05-10T00:43:41.458Z,16.8054
2023-05-10T00:44:43.045Z,16.7946
2023-05-10T00:45:44.749Z,16.7588
2023-05-10T00:46:46.348Z,16.7239
2023-05-10T00:47:48.079Z,16.7028
2023-05-10T00:48:49.674Z,16.7035
2023-05-10T00:49:51.249Z,16.6749
2023-05-10T00:50:52.969Z,16.7292
2023-05-10T00:51:55.180Z,16.7692
2023-05-10T00:52:57.127Z,16.7632
2023-05-10T00:53:57.839Z,16.7189
2023-05-10T00:54:59.543Z,16.6922
2023-05-10T00:56:01.161Z,16.6880
2023-05-10T00:57:02.831Z,16.6991
2023-05-10T00:58:04.388Z,16.6540
2023-05-10T00:59:06.018Z,16.5884
2023-05-10T01:00:07.745Z,16.6486
2023-05-10T01:01:09.313Z,16.6809
2023-05-10T01:02:12.752Z,16.6857
2023-05-10T01:03:12.736Z,16.6614
2023-05-10T01:04:14.241Z,16.6339
2023-05-10T01:05:16.048Z,16.6050
2023-05-10T01:06:17.460Z,16.5780
2023-05-10T01:07:19.224Z,16.5750
2023-05-10T01:08:20.755Z,16.5370
2023-05-10T01:09:22.435Z,16.5714
2023-05-10T01:10:24.072Z,16.6087
2023-05-10T01:11:25.702Z,16.6339
2023-05-10T01:12:27.372Z,16.6313
2023-05-10T01:13:29.104Z,16.6466
2023-05-10T01:14:30.622Z,16.6156
2023-05-10T01:15:32.309Z,16.5558
2023-05-10T01:16:33.999Z,16.4746
2023-05-10T01:17:35.803Z,16.4916
2023-05-10T01:18:37.138Z,16.5550
2023-05-10T01:19:38.852Z,16.6186
2023-05-10T01:20:40.469Z,16.6402
2023-05-10T01:21:42.144Z,16.6230
2023-05-10T01:22:43.793Z,16.6056
2023-05-10T01:23:45.406Z,16.5900
2023-05-10T01:24:47.037Z,16.5139
2023-05-10T01:25:48.680Z,16.4152
2023-05-10T01:26:50.317Z,16.4409
2023-05-10T01:27:52.212Z,16.5424
2023-05-10T01:28:53.646Z,16.6005
2023-05-10T01:30:05.907Z,16.6194
2023-05-10T01:30:56.891Z,16.5887
2023-05-10T01:31:58.541Z,16.5842
2023-05-10T01:33:00.250Z,16.5057
2023-05-10T01:34:01.905Z,16.4473
2023-05-10T01:35:03.514Z,16.3897
2023-05-10T01:36:05.247Z,16.4051
2023-05-10T01:37:06.828Z,16.4816
2023-05-10T01:38:08.439Z,16.5441
2023-05-10T01:39:10.057Z,16.5757
2023-05-10T01:40:11.653Z,16.5747
2023-05-10T01:41:13.339Z,16.5361
2023-05-10T01:42:14.948Z,16.4133
2023-05-10T01:43:16.660Z,16.2936
2023-05-10T01:44:18.274Z,16.2713
2023-05-10T01:45:19.905Z,16.2862
2023-05-10T01:46:21.580Z,16.3768
2023-05-10T01:47:23.194Z,16.4730
2023-05-10T01:48:24.871Z,16.5026
2023-05-10T01:49:26.556Z,16.4917
2023-05-10T01:50:28.100Z,16.4956
2023-05-10T01:51:29.750Z,16.4239
2023-05-10T01:52:31.445Z,16.3305
2023-05-10T01:53:33.244Z,16.2850
2023-05-10T01:54:34.653Z,16.3503
2023-05-10T01:55:36.340Z,16.4564
2023-05-10T01:56:37.884Z,16.4970
2023-05-10T01:57:39.524Z,16.4878
2023-05-10T01:58:41.191Z,16.4812
2023-05-10T01:59:42.816Z,16.4165
2023-05-10T02:00:44.435Z,16.3043
2023-05-10T02:01:46.128Z,16.2443
2023-05-10T02:02:47.777Z,16.2662
2023-05-10T02:03:49.448Z,16.3890
2023-05-10T02:04:52.197Z,16.4650
2023-05-10T02:05:53.708Z,16.4736
2023-05-10T02:06:55.328Z,16.4820
2023-05-10T02:07:56.096Z,16.4243
2023-05-10T02:08:58.344Z,16.2649
2023-05-10T02:09:59.484Z,16.1730
2023-05-10T02:11:01.990Z,16.1550
2023-05-10T02:12:03.704Z,16.1568
2023-05-10T02:13:04.261Z,16.2589
2023-05-10T02:14:06.230Z,16.3535
2023-05-10T02:15:07.631Z,16.3859
2023-05-10T02:16:09.261Z,16.3934
2023-05-10T02:17:10.806Z,16.3360
2023-05-10T02:18:12.507Z,16.2522
2023-05-10T02:19:14.141Z,16.1765
2023-05-10T02:20:16.460Z,16.1513
2023-05-10T02:21:17.419Z,16.1493
2023-05-10T02:22:19.081Z,16.2772
2023-05-10T02:23:20.679Z,16.3777
2023-05-10T02:24:22.360Z,16.3990
2023-05-10T02:25:24.043Z,16.4001
2023-05-10T02:26:25.626Z,16.3171
2023-05-10T02:27:27.257Z,16.2036
2023-05-10T02:28:28.945Z,16.0939
2023-05-10T02:29:30.704Z,16.0838
2023-05-10T02:30:32.268Z,16.1409
2023-05-10T02:31:34.015Z,16.2901
2023-05-10T02:32:35.629Z,16.3759
2023-05-10T02:33:37.153Z,16.3714
2023-05-10T02:34:38.907Z,16.2985
2023-05-10T02:35:40.465Z,16.2135
2023-05-10T02:36:42.168Z,16.1228
2023-05-10T02:37:43.806Z,16.0410
2023-05-10T02:38:45.365Z,16.0436
2023-05-10T02:39:47.116Z,16.1912
2023-05-10T02:40:48.702Z,16.3209
2023-05-10T02:41:50.285Z,16.3665
2023-05-10T02:42:51.957Z,16.3918
2023-05-10T02:43:53.632Z,16.3255
2023-05-10T02:44:55.226Z,16.2512
2023-05-10T02:45:57.274Z,16.1955
2023-05-10T02:46:58.478Z,16.1107
2023-05-10T02:48:00.246Z,16.0411
2023-05-10T02:49:01.795Z,16.0203
2023-05-10T02:50:03.426Z,16.1153
2023-05-10T02:51:05.088Z,16.2436
2023-05-10T02:52:06.748Z,16.2862
2023-05-10T02:53:08.333Z,16.3343
2023-05-10T02:54:10.080Z,16.4691
2023-05-10T02:55:11.645Z,16.6030
2023-05-10T02:56:13.355Z,16.8491
2023-05-10T02:57:15.009Z,17.1708
2023-05-10T02:58:16.609Z,17.4071
2023-05-10T02:59:18.213Z,17.6181
2023-05-10T03:00:19.929Z,17.9605
2023-05-10T03:01:21.517Z,18.2015
2023-05-10T03:02:23.190Z,18.2501
2023-05-10T03:03:24.775Z,18.1516
2023-05-10T03:04:26.472Z,17.9934
2023-05-10T03:05:28.100Z,17.8941
2023-05-10T03:06:29.752Z,17.8511
2023-05-10T03:07:31.356Z,17.7813
2023-05-10T03:08:33.041Z,17.6794
2023-05-10T03:09:34.703Z,17.6005
2023-05-10T03:10:36.351Z,17.5540
2023-05-10T03:11:38.090Z,17.6331
2023-05-10T03:12:39.582Z,17.7504
2023-05-10T03:13:41.282Z,17.8421
2023-05-10T03:14:42.858Z,17.8647
2023-05-10T03:15:44.608Z,17.8419
2023-05-10T03:16:46.337Z,17.7760
2023-05-10T03:17:47.795Z,17.7318
2023-05-10T03:18:49.453Z,17.6790
2023-05-10T03:19:51.143Z,17.6136
2023-05-10T03:20:52.800Z,17.5919
2023-05-10T03:21:54.565Z,17.6847
2023-05-10T03:22:56.025Z,17.7334
2023-05-10T03:23:57.689Z,17.7565
2023-05-10T03:24:59.342Z,17.7570
2023-05-10T03:26:01.024Z,17.6927
2023-05-10T03:27:02.629Z,17.6965
2023-05-10T03:28:04.249Z,17.7687
2023-05-10T03:29:05.897Z,17.8093
2023-05-10T03:30:07.488Z,17.8176
2023-05-10T03:31:09.204Z,17.7982
2023-05-10T03:32:10.817Z,17.7759
2023-05-10T03:33:12.422Z,17.7362
2023-05-10T03:34:14.108Z,17.7634
2023-05-10T03:35:15.823Z,17.7886
2023-05-10T03:36:17.487Z,17.8032
2023-05-10T03:37:19.039Z,17.7935
2023-05-10T03:38:20.725Z,17.7778
2023-05-10T03:39:22.378Z,17.7811
2023-05-10T03:40:23.937Z,17.8261
2023-05-10T03:41:25.572Z,17.9098
2023-05-10T03:42:27.331Z,17.9168
2023-05-10T03:43:28.848Z,17.9315
2023-05-10T03:44:30.513Z,17.9201
2023-05-10T03:45:32.218Z,17.8813
2023-05-10T03:46:33.834Z,17.8199
2023-05-10T03:47:35.479Z,17.8327
2023-05-10T03:48:37.096Z,17.8741
2023-05-10T03:49:38.709Z,17.9365
2023-05-10T03:50:40.389Z,18.0335
2023-05-10T03:51:42.110Z,18.0425
2023-05-10T03:52:43.684Z,18.0750
2023-05-10T03:53:45.277Z,18.0839
2023-05-10T03:54:46.932Z,18.0526
2023-05-10T03:55:48.597Z,17.9990
2023-05-10T03:56:50.256Z,17.9716
2023-05-10T03:57:51.918Z,17.9686
2023-05-10T03:58:53.476Z,17.9390
2023-05-10T03:59:55.049Z,17.9113
2023-05-10T04:00:56.700Z,17.9402
2023-05-10T04:01:58.368Z,17.9513
2023-05-10T04:03:00.121Z,17.9384
2023-05-10T04:04:01.624Z,17.9322
2023-05-10T04:05:03.285Z,17.9564
2023-05-10T04:06:04.939Z,17.9777
2023-05-10T04:07:06.531Z,17.9739
2023-05-10T04:08:08.212Z,17.9842
2023-05-10T04:09:09.819Z,17.9789
2023-05-10T04:10:11.499Z,18.0241
2023-05-10T04:11:15.724Z,18.0965
2023-05-10T04:12:14.747Z,18.1135
2023-05-10T04:13:16.552Z,18.0597
2023-05-10T04:14:18.043Z,17.9754
2023-05-10T04:15:19.671Z,17.9581
2023-05-10T04:16:21.323Z,18.0046
2023-05-10T04:17:23.075Z,18.0573
2023-05-10T04:18:24.656Z,18.1476
2023-05-10T04:19:27.273Z,18.1356
2023-05-10T04:20:27.932Z,18.0875
2023-05-10T04:21:29.568Z,18.0594
2023-05-10T04:22:31.175Z,18.0512
2023-05-10T04:23:32.930Z,18.0891
2023-05-10T04:24:34.580Z,18.1032
2023-05-10T04:25:37.256Z,18.0981
2023-05-10T04:26:37.830Z,18.0571
2023-05-10T04:27:39.429Z,18.0472
2023-05-10T04:28:41.227Z,18.0682
2023-05-10T04:29:42.794Z,18.0808
2023-05-10T04:30:44.420Z,18.0871
2023-05-10T04:31:46.066Z,18.0633
2023-05-10T04:32:48.721Z,18.0342
2023-05-10T04:33:49.347Z,18.0443
2023-05-10T04:34:50.972Z,18.0689
2023-05-10T04:35:52.597Z,18.0772
2023-05-10T04:36:54.295Z,18.0493
2023-05-10T04:37:55.833Z,18.0230
2023-05-10T04:38:57.606Z,18.0084
2023-05-10T04:39:59.160Z,18.0509
2023-05-10T04:41:00.797Z,18.0587
2023-05-10T04:42:02.533Z,18.0755
2023-05-10T04:43:04.209Z,18.1480
2023-05-10T04:44:06.003Z,18.1506
2023-05-10T04:45:07.520Z,18.0848
2023-05-10T04:46:09.168Z,18.0835
2023-05-10T04:47:12.676Z,18.0899
2023-05-10T04:48:12.474Z,18.0840
2023-05-10T04:49:14.101Z,18.0802
2023-05-10T04:50:15.969Z,18.1148
2023-05-10T04:51:17.473Z,18.1046
2023-05-10T04:52:18.959Z,18.1193
2023-05-10T04:53:20.684Z,18.2182
2023-05-10T04:54:23.040Z,18.4033
2023-05-10T04:55:23.989Z,18.6005
2023-05-10T04:56:25.574Z,18.8908
2023-05-10T04:57:27.234Z,19.2764
2023-05-10T04:58:28.830Z,19.5637
2023-05-10T04:59:30.938Z,19.7904
2023-05-10T05:00:32.138Z,20.0027
2023-05-10T05:01:33.955Z,20.3175
2023-05-10T05:02:35.483Z,20.5640
2023-05-10T05:03:38.076Z,20.6415
2023-05-10T05:04:38.632Z,20.7534
2023-05-10T05:05:40.349Z,20.9160
2023-05-10T05:06:42.912Z,21.1298
2023-05-10T05:07:43.568Z,21.2118
2023-05-10T05:08:45.280Z,21.2965
2023-05-10T05:09:46.832Z,21.2276
2023-05-10T05:10:48.614Z,21.1718
2023-05-10T05:11:50.173Z,21.2560
2023-05-10T05:12:51.925Z,21.4614
2023-05-10T05:13:53.518Z,21.4900
2023-05-10T05:14:55.081Z,21.5819
2023-05-10T05:15:57.009Z,21.6130
2023-05-10T05:16:58.422Z,21.7025
2023-05-10T05:18:00.110Z,21.8777
2023-05-10T05:19:01.686Z,21.9703
2023-05-10T05:20:03.336Z,21.7403
2023-05-10T05:21:04.954Z,21.7661
2023-05-10T05:22:06.641Z,21.8802
2023-05-10T05:23:08.257Z,21.9265
2023-05-10T05:24:09.906Z,22.0431
2023-05-10T05:25:11.532Z,21.8448
2023-05-10T05:26:13.214Z,21.7875
2023-05-10T05:27:14.849Z,21.9283
2023-05-10T05:28:16.402Z,21.9682
2023-05-10T05:29:18.055Z,22.1137
2023-05-10T05:30:19.804Z,22.2674
2023-05-10T05:31:22.413Z,22.0846
2023-05-10T05:32:22.959Z,22.1799
2023-05-10T05:33:24.611Z,22.2535
2023-05-10T05:34:26.475Z,22.3031
2023-05-10T05:35:28.927Z,22.4630
2023-05-10T05:36:29.543Z,22.5318
2023-05-10T05:37:31.482Z,22.3570
2023-05-10T05:38:33.817Z,22.4192
2023-05-10T05:39:35.331Z,22.5060
2023-05-10T05:40:36.164Z,22.5440
2023-05-10T05:41:38.761Z,22.6800
2023-05-10T05:42:40.491Z,22.4973
2023-05-10T05:43:40.957Z,22.3978
2023-05-10T05:44:42.941Z,22.3198
2023-05-10T05:45:45.381Z,22.3997
2023-05-10T05:46:45.972Z,22.5484
2023-05-10T05:47:48.585Z,22.5850
2023-05-10T05:48:49.297Z,22.3922
2023-05-10T05:49:50.925Z,22.5329
2023-05-10T05:50:52.527Z,22.5814
2023-05-10T05:51:54.462Z,22.5805
2023-05-10T05:52:56.793Z,22.7409
2023-05-10T05:53:57.510Z,22.7077
2023-05-10T05:54:59.091Z,22.6229
2023-05-10T05:56:00.882Z,22.7124
2023-05-10T05:57:02.460Z,22.7563
2023-05-10T05:58:04.062Z,22.7981
2023-05-10T05:59:05.690Z,22.8981
2023-05-10T06:00:07.409Z,22.6688
2023-05-10T06:01:08.972Z,22.5688
2023-05-10T06:02:10.746Z,22.5691
2023-05-10T06:03:13.360Z,22.6542
2023-05-10T06:04:13.974Z,22.8048
2023-05-10T06:05:16.612Z,22.8700
2023-05-10T06:06:17.281Z,22.5808
2023-05-10T06:07:19.857Z,22.4783
2023-05-10T06:08:20.529Z,22.5123
2023-05-10T06:09:22.189Z,22.6606
2023-05-10T06:10:23.802Z,22.8512
2023-05-10T06:11:26.409Z,22.6773
2023-05-10T06:12:27.358Z,22.3945
2023-05-10T06:13:29.936Z,22.3565
2023-05-10T06:14:30.298Z,22.4891
2023-05-10T06:15:32.048Z,22.7274
2023-05-10T06:16:34.713Z,22.8837
2023-05-10T06:17:35.271Z,22.6186
2023-05-10T06:18:36.939Z,22.5269
2023-05-10T06:19:38.526Z,22.5649
2023-05-10T06:20:40.241Z,22.7596
2023-05-10T06:21:41.862Z,22.9749
2023-05-10T06:22:43.620Z,22.8396
2023-05-10T06:23:45.133Z,22.4766
2023-05-10T06:24:46.756Z,22.3880
2023-05-10T06:25:48.451Z,22.5620
2023-05-10T06:26:50.136Z,22.8207
2023-05-10T06:27:53.651Z,23.0099
2023-05-10T06:28:53.403Z,22.7887
2023-05-10T06:30:02.177Z,22.7304
2023-05-10T06:30:56.631Z,22.7431
2023-05-10T06:31:58.458Z,22.8957
2023-05-10T06:32:59.998Z,23.1299
2023-05-10T06:34:01.542Z,22.9775
2023-05-10T06:35:03.200Z,22.8275
2023-05-10T06:36:04.887Z,22.9115
2023-05-10T06:37:06.490Z,22.9935
2023-05-10T06:38:08.260Z,23.1784
2023-05-10T06:39:09.769Z,23.3231
2023-05-10T06:40:11.497Z,23.0016
2023-05-10T06:41:13.114Z,22.7700
2023-05-10T06:42:14.828Z,22.8677
2023-05-10T06:43:17.354Z,23.0565
2023-05-10T06:44:18.059Z,23.3382
2023-05-10T06:45:19.808Z,23.4820
2023-05-10T06:46:21.284Z,23.1324
2023-05-10T06:47:22.995Z,22.9101
2023-05-10T06:48:24.637Z,22.9333
2023-05-10T06:49:26.226Z,23.1406
2023-05-10T06:50:27.790Z,23.3807
2023-05-10T06:51:29.457Z,23.1066
2023-05-10T06:52:31.107Z,22.9281
2023-05-10T06:53:32.770Z,23.0062
2023-05-10T06:54:34.385Z,23.1843
2023-05-10T06:55:36.084Z,23.4397
2023-05-10T06:56:37.664Z,23.6000
2023-05-10T06:57:39.442Z,23.3565
2023-05-10T06:58:42.003Z,23.1971
2023-05-10T06:59:42.665Z,23.3316
2023-05-10T07:00:44.330Z,23.4607
2023-05-10T07:01:45.945Z,23.6706
2023-05-10T07:02:47.569Z,23.6711
2023-05-10T07:03:49.398Z,23.4981
2023-05-10T07:04:50.901Z,23.4023
2023-05-10T07:05:52.455Z,23.4091
2023-05-10T07:06:54.087Z,23.5258
2023-05-10T07:07:55.761Z,23.6787
2023-05-10T07:08:58.385Z,23.6879
2023-05-10T07:09:59.058Z,23.5086
2023-05-10T07:11:00.656Z,23.5597
2023-05-10T07:12:02.350Z,23.6117
2023-05-10T07:13:04.009Z,23.7448
2023-05-10T07:14:05.657Z,23.8090
2023-05-10T07:15:07.286Z,23.4243
2023-05-10T07:16:08.963Z,23.2643
2023-05-10T07:17:10.586Z,23.3380
2023-05-10T07:18:12.210Z,23.4673
2023-05-10T07:19:13.788Z,23.6564
2023-05-10T07:20:15.564Z,23.5011
2023-05-10T07:21:17.106Z,23.2689
2023-05-10T07:22:18.746Z,23.1726
2023-05-10T07:23:20.402Z,23.2359
2023-05-10T07:24:22.396Z,23.4227
2023-05-10T07:25:23.647Z,23.5880
2023-05-10T07:26:25.882Z,23.3855
2023-05-10T07:27:27.796Z,23.2158
2023-05-10T07:28:28.691Z,23.1446
2023-05-10T07:29:30.303Z,23.2472
2023-05-10T07:30:32.021Z,23.5168
2023-05-10T07:31:33.495Z,23.3831
2023-05-10T07:32:35.300Z,23.0244
2023-05-10T07:33:36.809Z,22.9054
2023-05-10T07:34:38.496Z,23.0146
2023-05-10T07:35:40.111Z,23.3333
2023-05-10T07:36:41.691Z,23.4957
2023-05-10T07:37:43.281Z,23.3084
2023-05-10T07:38:45.003Z,23.2129
2023-05-10T07:39:48.420Z,23.2634
2023-05-10T07:40:48.823Z,23.4647
2023-05-10T07:41:49.917Z,23.6259
2023-05-10T07:42:51.517Z,23.4901
2023-05-10T07:43:53.731Z,23.3727
2023-05-10T07:44:54.885Z,23.4303
2023-05-10T07:45:56.544Z,23.5824
2023-05-10T07:46:58.769Z,23.8880
2023-05-10T07:47:59.804Z,23.7366
2023-05-10T07:49:01.405Z,23.5093
2023-05-10T07:50:03.074Z,23.2990
2023-05-10T07:51:04.792Z,23.2155
2023-05-10T07:52:06.405Z,23.4873
2023-05-10T07:53:08.002Z,23.5013
2023-05-10T07:54:09.641Z,23.4306
2023-05-10T07:55:11.338Z,23.3998
2023-05-10T07:56:12.953Z,23.4438
2023-05-10T07:57:14.596Z,23.5653
2023-05-10T07:58:16.236Z,23.5278
2023-05-10T07:59:17.932Z,23.1561
2023-05-10T08:00:19.828Z,23.0237
2023-05-10T08:01:21.619Z,22.8811
2023-05-10T08:02:22.911Z,22.7885
2023-05-10T08:03:24.647Z,22.7320
2023-05-10T08:04:26.269Z,22.3806
2023-05-10T08:05:27.936Z,22.1009
2023-05-10T08:06:29.568Z,22.2123
2023-05-10T08:07:31.233Z,22.2432
2023-05-10T08:08:33.775Z,22.3554
2023-05-10T08:09:34.503Z,22.2116
2023-05-10T08:10:36.194Z,21.7348
2023-05-10T08:11:37.886Z,21.6818
2023-05-10T08:12:39.414Z,21.7914
2023-05-10T08:13:41.059Z,21.9470
2023-05-10T08:14:42.647Z,22.1177
2023-05-10T08:15:44.453Z,21.9225
2023-05-10T08:16:45.986Z,21.4982
2023-05-10T08:17:48.680Z,21.4470
2023-05-10T08:18:49.204Z,21.4968
2023-05-10T08:19:50.892Z,21.8148
2023-05-10T08:20:53.536Z,21.9974
2023-05-10T08:21:54.194Z,21.8258
2023-05-10T08:22:55.804Z,21.4417
2023-05-10T08:23:57.556Z,21.4564
2023-05-10T08:24:59.073Z,21.6072
2023-05-10T08:26:01.017Z,21.8924
2023-05-10T08:27:02.498Z,22.0690
2023-05-10T08:28:04.147Z,21.7463
2023-05-10T08:29:05.730Z,21.5021
2023-05-10T08:30:07.424Z,21.4877
2023-05-10T08:31:09.147Z,21.5911
2023-05-10T08:32:10.720Z,21.8433
2023-05-10T08:33:12.426Z,21.8627
2023-05-10T08:34:14.039Z,21.3018
2023-05-10T08:35:15.852Z,21.1273
2023-05-10T08:36:17.362Z,21.2510
2023-05-10T08:37:19.012Z,21.5246
2023-05-10T08:38:21.533Z,21.8499
2023-05-10T08:39:29.847Z,21.9214
2023-05-10T08:40:23.878Z,21.5505
2023-05-10T08:41:25.511Z,21.3637
2023-05-10T08:42:27.187Z,21.4036
2023-05-10T08:43:29.765Z,21.5527
2023-05-10T08:44:30.431Z,21.7750
2023-05-10T08:45:32.087Z,21.7379
2023-05-10T08:46:33.770Z,21.3028
2023-05-10T08:47:35.365Z,21.1938
2023-05-10T08:48:37.025Z,21.1985
2023-05-10T08:49:38.654Z,21.3458
2023-05-10T08:50:40.592Z,21.5251
2023-05-10T08:51:43.823Z,21.5244
2023-05-10T08:52:43.565Z,21.1504
2023-05-10T08:53:45.492Z,20.9018
2023-05-10T08:54:47.695Z,20.9606
2023-05-10T08:55:48.386Z,21.1496
2023-05-10T08:56:50.192Z,21.3187
2023-05-10T08:57:51.642Z,21.3106
2023-05-10T08:58:53.444Z,20.9653
2023-05-10T08:59:55.002Z,20.7414
2023-05-10T09:00:56.801Z,20.6798
2023-05-10T09:01:58.374Z,20.8080
2023-05-10T09:03:00.038Z,21.0010
2023-05-10T09:04:02.045Z,21.1092
2023-05-10T09:05:03.413Z,20.9229
2023-05-10T09:06:05.063Z,20.6934
2023-05-10T09:07:06.623Z,20.7289
2023-05-10T09:08:08.324Z,21.0401
2023-05-10T09:09:09.852Z,21.3846
2023-05-10T09:10:11.541Z,21.5497
2023-05-10T09:11:13.192Z,21.2386
2023-05-10T09:12:14.810Z,21.0550
2023-05-10T09:13:16.527Z,21.0989
2023-05-10T09:14:18.122Z,21.2769
2023-05-10T09:15:19.831Z,21.5306
2023-05-10T09:16:22.460Z,21.6965
2023-05-10T09:17:23.152Z,21.3776
2023-05-10T09:18:26.018Z,21.2308
2023-05-10T09:19:27.400Z,21.2775
2023-05-10T09:20:27.884Z,21.4508
2023-05-10T09:21:29.505Z,21.6562
2023-05-10T09:22:31.282Z,21.6558
2023-05-10T09:23:32.764Z,21.2682
2023-05-10T09:24:35.416Z,21.0895
2023-05-10T09:25:36.094Z,21.0766
2023-05-10T09:26:37.747Z,21.2269
2023-05-10T09:27:39.345Z,21.4401
2023-05-10T09:28:41.088Z,21.4708
2023-05-10T09:29:42.624Z,21.0841
2023-05-10T09:30:44.340Z,20.8792
2023-05-10T09:31:45.928Z,20.8993
2023-05-10T09:32:47.643Z,21.0671
2023-05-10T09:33:49.214Z,21.2662
2023-05-10T09:34:50.847Z,21.3569
2023-05-10T09:35:52.586Z,21.1936
2023-05-10T09:36:54.121Z,21.1683
2023-05-10T09:37:55.861Z,21.1973
2023-05-10T09:38:57.535Z,21.3773
2023-05-10T09:39:59.076Z,21.5428
2023-05-10T09:41:00.817Z,21.5321
2023-05-10T09:42:02.362Z,21.1028
2023-05-10T09:43:04.037Z,20.9716
2023-05-10T09:44:05.686Z,21.0166
2023-05-10T09:45:07.320Z,21.2709
2023-05-10T09:46:09.003Z,21.5657
2023-05-10T09:47:10.564Z,21.6766
2023-05-10T09:48:12.462Z,21.3843
2023-05-10T09:49:13.853Z,21.3025
2023-05-10T09:50:15.563Z,21.2587
2023-05-10T09:51:17.235Z,21.4301
2023-05-10T09:52:18.834Z,21.6525
2023-05-10T09:53:20.468Z,21.5890
2023-05-10T09:54:22.110Z,21.2709
2023-05-10T09:55:23.765Z,21.1967
2023-05-10T09:56:25.431Z,21.2035
2023-05-10T09:57:27.038Z,21.4069
2023-05-10T09:58:28.733Z,21.6418
2023-05-10T09:59:30.325Z,21.5384
2023-05-10T10:00:31.975Z,21.3612
2023-05-10T10:01:33.705Z,21.3222
2023-05-10T10:02:35.283Z,21.3418
2023-05-10T10:03:36.936Z,21.5135
2023-05-10T10:04:38.545Z,21.6544
2023-05-10T10:05:40.274Z,21.6068
2023-05-10T10:06:41.831Z,21.4867
2023-05-10T10:07:43.476Z,21.3844
2023-05-10T10:08:45.192Z,21.3190
2023-05-10T10:09:46.827Z,21.3813
2023-05-10T10:10:48.437Z,21.4622
2023-05-10T10:11:50.064Z,21.2086
2023-05-10T10:12:51.666Z,21.0011
2023-05-10T10:13:53.362Z,20.9240
2023-05-10T10:14:54.971Z,21.0371
2023-05-10T10:15:56.627Z,21.2400
2023-05-10T10:17:06.787Z,21.4178
2023-05-10T10:18:00.044Z,21.3016
2023-05-10T10:19:01.700Z,21.1313
2023-05-10T10:20:03.266Z,21.0424
2023-05-10T10:21:04.804Z,21.0797
2023-05-10T10:22:06.583Z,21.3042
2023-05-10T10:23:08.134Z,21.6516
2023-05-10T10:24:09.857Z,21.8564
2023-05-10T10:25:11.381Z,21.9586
2023-05-10T10:26:13.106Z,22.0632
2023-05-10T10:27:14.692Z,22.2472
2023-05-10T10:28:16.271Z,22.5412
2023-05-10T10:29:17.991Z,22.8882
2023-05-10T10:30:19.731Z,22.9155
2023-05-10T10:31:21.323Z,23.0011
2023-05-10T10:32:23.022Z,23.0991
2023-05-10T10:33:28.739Z,23.0795
2023-05-10T10:34:26.234Z,23.2682
2023-05-10T10:35:27.890Z,23.3823
2023-05-10T10:36:29.554Z,23.3597
2023-05-10T10:37:31.096Z,23.4491
2023-05-10T10:38:32.773Z,23.5549
2023-05-10T10:39:34.467Z,23.5902
2023-05-10T10:40:36.083Z,23.6962
2023-05-10T10:41:37.717Z,23.4902
2023-05-10T10:42:39.358Z,23.1664
2023-05-10T10:43:40.997Z,23.0900
2023-05-10T10:44:42.614Z,22.9884
2023-05-10T10:45:44.238Z,22.9351
2023-05-10T10:46:45.946Z,23.0445
2023-05-10T10:47:47.642Z,22.9912
2023-05-10T10:48:49.139Z,22.6396
2023-05-10T10:49:51.547Z,22.5438
2023-05-10T10:50:52.611Z,22.4407
2023-05-10T10:51:54.079Z,22.6694
2023-05-10T10:52:55.830Z,22.9178
2023-05-10T10:53:57.402Z,22.7908
2023-05-10T10:54:59.175Z,22.5447
2023-05-10T10:56:00.744Z,22.3994
2023-05-10T10:57:02.348Z,22.3894
2023-05-10T10:58:03.980Z,22.5718
2023-05-10T10:59:05.653Z,22.7671
2023-05-10T11:00:07.295Z,22.5632
2023-05-10T11:01:08.939Z,22.3162
2023-05-10T11:02:10.587Z,22.1870
2023-05-10T11:03:12.246Z,22.2115
2023-05-10T11:04:14.052Z,22.4972
2023-05-10T11:05:15.602Z,22.6875
2023-05-10T11:06:17.152Z,22.5069
2023-05-10T11:07:18.820Z,22.4399
2023-05-10T11:08:20.400Z,22.4044
2023-05-10T11:09:21.982Z,22.4792
2023-05-10T11:10:24.038Z,22.6991
2023-05-10T11:11:25.286Z,22.7898
2023-05-10T11:12:27.105Z,22.4223
2023-05-10T11:13:28.567Z,22.3437
2023-05-10T11:14:30.363Z,22.4313
2023-05-10T11:15:31.988Z,22.5128
2023-05-10T11:16:33.553Z,22.8435
2023-05-10T11:17:35.231Z,22.9097
2023-05-10T11:18:36.916Z,22.5519
2023-05-10T11:19:38.448Z,22.5037
2023-05-10T11:20:40.203Z,22.4877
2023-05-10T11:21:41.718Z,22.5726
2023-05-10T11:22:43.471Z,22.7592
2023-05-10T11:23:45.066Z,22.7344
2023-05-10T11:24:47.860Z,22.4663
2023-05-10T11:25:48.382Z,22.3501
2023-05-10T11:26:50.000Z,22.2160
2023-05-10T11:27:51.603Z,22.3351
2023-05-10T11:28:53.280Z,22.5386
2023-05-10T11:29:54.881Z,22.4232
2023-05-10T11:30:56.625Z,21.8517
2023-05-10T11:31:58.183Z,21.7747
2023-05-10T11:32:59.816Z,21.7680
2023-05-10T11:34:01.464Z,21.9121
2023-05-10T11:35:03.090Z,21.9968
2023-05-10T11:36:04.810Z,21.7660
2023-05-10T11:37:06.354Z,21.4772
2023-05-10T11:38:08.031Z,21.3967
2023-05-10T11:39:09.667Z,21.3024
2023-05-10T11:40:11.386Z,21.4489
2023-05-10T11:41:12.966Z,21.6398
2023-05-10T11:42:15.362Z,21.6144
2023-05-10T11:43:16.209Z,21.2262
2023-05-10T11:44:17.923Z,21.1880
2023-05-10T11:45:19.549Z,21.1980
2023-05-10T11:46:21.307Z,21.3431
2023-05-10T11:47:22.918Z,21.5324
2023-05-10T11:48:24.490Z,21.5478
2023-05-10T11:49:26.159Z,21.3202
2023-05-10T11:50:27.724Z,21.4314
2023-05-10T11:51:29.489Z,21.7331
2023-05-10T11:52:31.086Z,22.2480
2023-05-10T11:53:32.677Z,22.7967
2023-05-10T11:54:34.433Z,22.8882
2023-05-10T11:55:35.939Z,22.6664
2023-05-10T11:56:37.666Z,22.9209
2023-05-10T11:57:39.564Z,23.2243
2023-05-10T11:58:40.930Z,23.4830
2023-05-10T11:59:43.331Z,23.7061
2023-05-10T12:00:44.173Z,23.3280
2023-05-10T12:01:45.903Z,23.3673
2023-05-10T12:02:47.585Z,23.6608
2023-05-10T12:03:49.226Z,23.7944
2023-05-10T12:04:50.873Z,24.0077
2023-05-10T12:05:52.404Z,23.9212
2023-05-10T12:06:54.116Z,23.2352
2023-05-10T12:07:55.736Z,22.9377
2023-05-10T12:08:57.310Z,22.9204
2023-05-10T12:09:59.054Z,22.9851
2023-05-10T12:11:00.609Z,23.2688
2023-05-10T12:12:02.295Z,22.9559
2023-05-10T12:13:03.899Z,22.3750
2023-05-10T12:14:05.638Z,22.4161
2023-05-10T12:15:07.213Z,22.5686
2023-05-10T12:16:08.805Z,22.8571
2023-05-10T12:17:10.470Z,22.9942
2023-05-10T12:18:12.192Z,22.4102
2023-05-10T12:19:13.768Z,21.9894
2023-05-10T12:20:15.612Z,21.9503
2023-05-10T12:21:17.026Z,22.1823
2023-05-10T12:22:18.717Z,22.4459
2023-05-10T12:23:20.315Z,22.4688
2023-05-10T12:24:21.943Z,21.9293
2023-05-10T12:25:23.629Z,21.8041